Time;durP1;ratioP1;P1;durP2;ratioP2;P2;SDS_P1;SDS_P2;PMS_P1;PMS_P2;Temp;Humidity;BMP_temperature;BMP_pressure;BME280_temperature;BME280_humidity;BME280_pressure;Samples;Min_cycle;Max_cycle;Signal;HPM_P1;HPM_P2
2020/12/27 00:02:16;;;;;;;23.05;2.65;;;;;;;;;;5048957;28;20032;-69
2020/12/27 00:04:41;;;;;;;25.88;2.72;;;;;;;;;;5041011;28;20037;-69
2020/12/27 00:07:08;;;;;;;32.53;4.80;;;;;;;;;;5047963;28;20024;-69
2020/12/27 00:09:34;;;;;;;24.30;3.08;;;;;;;;;;5041353;28;20033;-69
2020/12/27 00:11:59;;;;;;;23.42;2.85;;;;;;;;;;5041738;28;20041;-69
2020/12/27 00:14:25;;;;;;;26.70;3.70;;;;;;;;;;5043405;28;20025;-69
2020/12/27 00:16:50;;;;;;;14.93;3.22;;;;;;;;;;5041412;28;20029;-69
2020/12/27 00:19:15;;;;;;;23.67;2.90;;;;;;;;;;5046935;28;20037;-69
2020/12/27 00:21:41;;;;;;;25.92;4.05;;;;;;;;;;5041133;28;20624;-69
2020/12/27 00:24:06;;;;;;;26.23;3.08;;;;;;;;;;5042462;28;20029;-69
2020/12/27 00:26:31;;;;;;;16.48;2.55;;;;;;;;;;5044872;28;20109;-70
2020/12/27 00:28:57;;;;;;;16.80;2.00;;;;;;;;;;5042511;28;20111;-72
2020/12/27 00:31:22;;;;;;;20.23;3.03;;;;;;;;;;5038715;28;20049;-72
2020/12/27 00:33:47;;;;;;;23.20;2.60;;;;;;;;;;5046948;28;20044;-70
2020/12/27 00:36:19;;;;;;;23.67;3.05;;;;;;;;;;5044491;28;20034;-69
2020/12/27 00:38:44;;;;;;;14.20;2.05;;;;;;;;;;5046598;28;20028;-69
2020/12/27 00:41:10;;;;;;;19.02;2.00;;;;;;;;;;5049221;28;20039;-71
2020/12/27 00:43:35;;;;;;;9.73;1.70;;;;;;;;;;5020721;28;20021;-70
2020/12/27 00:46:00;;;;;;;25.98;2.60;;;;;;;;;;5032344;28;20032;-70
2020/12/27 00:48:25;;;;;;;16.30;2.30;;;;;;;;;;5043052;28;20033;-70
2020/12/27 00:50:51;;;;;;;19.38;2.03;;;;;;;;;;5042818;28;20075;-71
2020/12/27 00:53:16;;;;;;;20.48;2.13;;;;;;;;;;5034045;28;20033;-69
2020/12/27 00:55:43;;;;;;;14.85;1.85;;;;;;;;;;5050066;28;20048;-70
2020/12/27 00:58:08;;;;;;;15.48;1.60;;;;;;;;;;5036489;28;20066;-73
2020/12/27 01:00:33;;;;;;;18.85;2.53;;;;;;;;;;5040681;28;20022;-70
2020/12/27 01:02:58;;;;;;;10.70;2.15;;;;;;;;;;5033165;28;20029;-70
2020/12/27 01:05:24;;;;;;;18.38;2.40;;;;;;;;;;5043890;28;20097;-70
2020/12/27 01:07:49;;;;;;;18.83;3.35;;;;;;;;;;5033801;28;20036;-69
2020/12/27 01:10:14;;;;;;;21.85;2.90;;;;;;;;;;5031437;28;20534;-69
2020/12/27 01:12:39;;;;;;;9.30;2.33;;;;;;;;;;5035650;28;20030;-69
2020/12/27 01:15:06;;;;;;;20.50;3.17;;;;;;;;;;5043225;28;20052;-70
2020/12/27 01:17:31;;;;;;;20.15;2.40;;;;;;;;;;5040536;28;20029;-68
2020/12/27 01:19:56;;;;;;;11.45;2.65;;;;;;;;;;5042240;28;20028;-69
2020/12/27 01:22:21;;;;;;;15.38;2.53;;;;;;;;;;5038022;28;20024;-69
2020/12/27 01:24:47;;;;;;;20.25;2.53;;;;;;;;;;5041249;28;20120;-69
2020/12/27 01:27:12;;;;;;;16.98;2.67;;;;;;;;;;5040239;28;20029;-70
2020/12/27 01:29:37;;;;;;;16.70;2.15;;;;;;;;;;5042734;28;20028;-69
2020/12/27 01:32:02;;;;;;;20.58;2.22;;;;;;;;;;5041576;28;20049;-71
2020/12/27 01:34:28;;;;;;;13.00;2.40;;;;;;;;;;5041524;28;20025;-69
2020/12/27 01:36:54;;;;;;;16.63;2.63;;;;;;;;;;5042069;28;20029;-71
2020/12/27 01:39:19;;;;;;;21.80;2.75;;;;;;;;;;5040815;28;20108;-70
2020/12/27 01:41:45;;;;;;;18.42;2.55;;;;;;;;;;5041067;28;20021;-70
2020/12/27 01:44:12;;;;;;;17.98;2.25;;;;;;;;;;5041226;28;20095;-70
2020/12/27 01:46:41;;;;;;;13.90;2.25;;;;;;;;;;5034680;28;20088;-70
2020/12/27 01:49:07;;;;;;;15.70;2.53;;;;;;;;;;5055967;28;20071;-69
2020/12/27 01:51:32;;;;;;;12.73;2.53;;;;;;;;;;5038589;28;20041;-70
2020/12/27 01:53:58;;;;;;;17.50;3.10;;;;;;;;;;5036361;28;20033;-69
2020/12/27 01:56:29;;;;;;;25.23;3.28;;;;;;;;;;5052601;28;20021;-69
2020/12/27 01:58:58;;;;;;;21.58;2.80;;;;;;;;;;5056219;28;20029;-70
2020/12/27 02:01:23;;;;;;;16.33;2.85;;;;;;;;;;5055816;28;20044;-69
2020/12/27 02:03:49;;;;;;;15.32;2.75;;;;;;;;;;5056019;28;20400;-69
2020/12/27 02:06:14;;;;;;;25.70;2.45;;;;;;;;;;5055997;28;20373;-70
2020/12/27 02:08:39;;;;;;;25.45;2.28;;;;;;;;;;5034149;28;20041;-70
2020/12/27 02:11:05;;;;;;;23.20;3.20;;;;;;;;;;5034940;28;20101;-69
2020/12/27 02:13:30;;;;;;;23.30;3.13;;;;;;;;;;5035586;28;20121;-69
2020/12/27 02:15:55;;;;;;;22.45;2.63;;;;;;;;;;5035819;28;20068;-69
2020/12/27 02:18:20;;;;;;;16.52;2.30;;;;;;;;;;5035735;28;20038;-69
2020/12/27 02:20:46;;;;;;;22.80;3.47;;;;;;;;;;5035710;28;20076;-69
2020/12/27 02:23:13;;;;;;;28.50;3.80;;;;;;;;;;5035220;28;20477;-69
2020/12/27 02:25:38;;;;;;;19.20;2.70;;;;;;;;;;5034992;28;20474;-70
2020/12/27 02:28:03;;;;;;;19.50;4.00;;;;;;;;;;5035729;28;20037;-69
2020/12/27 02:30:29;;;;;;;23.98;3.13;;;;;;;;;;5035061;28;20025;-69
2020/12/27 02:32:54;;;;;;;21.75;2.50;;;;;;;;;;5034672;28;20802;-69
2020/12/27 02:35:19;;;;;;;22.23;2.58;;;;;;;;;;5035489;28;20029;-70
2020/12/27 02:37:47;;;;;;;22.67;3.10;;;;;;;;;;5035361;28;20437;-69
2020/12/27 02:40:12;;;;;;;16.33;2.38;;;;;;;;;;5035504;28;20029;-69
2020/12/27 02:42:37;;;;;;;23.75;3.00;;;;;;;;;;5052563;28;20174;-69
2020/12/27 02:47:28;;;;;;;16.63;2.20;;;;;;;;;;5035328;28;20033;-71
2020/12/27 02:49:53;;;;;;;14.85;2.33;;;;;;;;;;5034875;28;20152;-69
2020/12/27 02:52:19;;;;;;;23.25;3.08;;;;;;;;;;5034438;28;20041;-69
2020/12/27 02:54:44;;;;;;;23.73;3.22;;;;;;;;;;5034873;28;20048;-69
2020/12/27 02:57:09;;;;;;;25.40;2.67;;;;;;;;;;5034467;28;20025;-70
2020/12/27 02:59:35;;;;;;;19.65;2.53;;;;;;;;;;5034432;28;20033;-70
2020/12/27 03:02:00;;;;;;;18.63;2.47;;;;;;;;;;5035034;28;20021;-70
2020/12/27 03:04:25;;;;;;;15.38;3.13;;;;;;;;;;5034452;28;20381;-71
2020/12/27 03:06:50;;;;;;;25.55;2.85;;;;;;;;;;5034043;28;20037;-70
2020/12/27 03:09:16;;;;;;;13.80;2.40;;;;;;;;;;5034843;28;20087;-69
2020/12/27 03:11:41;;;;;;;20.30;3.03;;;;;;;;;;5034127;28;20099;-69
2020/12/27 03:14:08;;;;;;;24.58;2.95;;;;;;;;;;5034313;28;20026;-69
2020/12/27 03:16:33;;;;;;;19.17;1.60;;;;;;;;;;5033768;28;20474;-73
2020/12/27 03:18:59;;;;;;;15.98;1.63;;;;;;;;;;5035007;28;20029;-70
2020/12/27 03:21:24;;;;;;;13.32;1.65;;;;;;;;;;5034284;28;20044;-69
2020/12/27 03:23:49;;;;;;;9.45;0.85;;;;;;;;;;5034518;28;20125;-69
2020/12/27 03:26:14;;;;;;;13.73;1.25;;;;;;;;;;5034326;28;20044;-69
2020/12/27 03:28:40;;;;;;;3.78;0.70;;;;;;;;;;5034280;28;20540;-70
2020/12/27 03:31:05;;;;;;;6.20;0.77;;;;;;;;;;5034737;28;20059;-70
2020/12/27 03:33:30;;;;;;;2.65;0.75;;;;;;;;;;5033919;28;20128;-69
2020/12/27 03:35:56;;;;;;;2.17;0.50;;;;;;;;;;5033549;28;20064;-75
2020/12/27 03:38:22;;;;;;;3.97;0.60;;;;;;;;;;5034670;28;20057;-71
2020/12/27 03:40:47;;;;;;;2.85;0.68;;;;;;;;;;5036797;28;20041;-69
2020/12/27 03:43:12;;;;;;;8.82;1.50;;;;;;;;;;5051098;28;20044;-69
2020/12/27 03:45:40;;;;;;;8.38;0.82;;;;;;;;;;5033692;28;20025;-69
2020/12/27 03:48:05;;;;;;;1.17;0.40;;;;;;;;;;5033680;28;20030;-69
2020/12/27 03:50:30;;;;;;;4.80;0.95;;;;;;;;;;5033926;28;20040;-70
2020/12/27 03:52:55;;;;;;;3.28;0.90;;;;;;;;;;5033372;28;20065;-69
2020/12/27 03:55:21;;;;;;;9.75;1.30;;;;;;;;;;5034153;28;20041;-69
2020/12/27 03:57:46;;;;;;;11.23;2.13;;;;;;;;;;5032710;28;20029;-68
2020/12/27 04:00:11;;;;;;;19.13;1.88;;;;;;;;;;5033652;28;20021;-70
2020/12/27 04:02:37;;;;;;;13.88;1.60;;;;;;;;;;5033230;28;20025;-69
2020/12/27 04:05:02;;;;;;;19.45;2.22;;;;;;;;;;5033966;28;20033;-69
2020/12/27 04:07:31;;;;;;;11.98;1.67;;;;;;;;;;5032558;28;20052;-69
2020/12/27 04:09:56;;;;;;;12.95;2.00;;;;;;;;;;5033384;28;20029;-69
2020/12/27 04:12:21;;;;;;;15.25;2.60;;;;;;;;;;5033656;28;20037;-70
2020/12/27 04:14:47;;;;;;;22.63;2.92;;;;;;;;;;5033109;28;20347;-69
2020/12/27 04:17:12;;;;;;;25.75;2.28;;;;;;;;;;5033659;28;20036;-69
2020/12/27 04:19:37;;;;;;;17.92;1.50;;;;;;;;;;5033106;28;20474;-70
2020/12/27 04:22:02;;;;;;;8.75;1.65;;;;;;;;;;5032950;28;20066;-69
2020/12/27 04:24:28;;;;;;;8.90;1.48;;;;;;;;;;5033387;28;20041;-69
2020/12/27 04:26:53;;;;;;;8.65;0.93;;;;;;;;;;5033085;28;20155;-70
2020/12/27 04:29:18;;;;;;;8.73;0.80;;;;;;;;;;5032506;28;20428;-69
2020/12/27 04:31:43;;;;;;;4.03;0.63;;;;;;;;;;5032790;28;20033;-69
2020/12/27 04:34:09;;;;;;;7.40;1.08;;;;;;;;;;5033132;28;20545;-69
2020/12/27 04:36:34;;;;;;;5.38;0.77;;;;;;;;;;5032624;28;20017;-70
2020/12/27 04:38:59;;;;;;;5.88;0.77;;;;;;;;;;5032605;28;20116;-69
2020/12/27 04:41:24;;;;;;;3.33;0.50;;;;;;;;;;5035732;28;20029;-69
2020/12/27 04:43:50;;;;;;;3.50;0.73;;;;;;;;;;5032911;28;20381;-69
2020/12/27 04:46:16;;;;;;;7.97;0.60;;;;;;;;;;5032906;28;20092;-69
2020/12/27 04:48:43;;;;;;;2.22;0.60;;;;;;;;;;5033153;28;20041;-70
2020/12/27 04:51:09;;;;;;;6.32;1.08;;;;;;;;;;5032834;28;20021;-69
2020/12/27 04:53:35;;;;;;;7.68;0.82;;;;;;;;;;5032772;28;20069;-69
2020/12/27 04:56:01;;;;;;;7.75;0.70;;;;;;;;;;5031408;28;20064;-69
2020/12/27 04:58:28;;;;;;;9.55;1.88;;;;;;;;;;5033000;28;20028;-70
2020/12/27 05:00:54;;;;;;;2.13;0.70;;;;;;;;;;5032763;28;20036;-68
2020/12/27 05:03:19;;;;;;;5.40;0.57;;;;;;;;;;5032660;28;20104;-69
2020/12/27 05:05:47;;;;;;;6.40;0.70;;;;;;;;;;5031875;28;20056;-69
2020/12/27 05:08:12;;;;;;;8.45;0.75;;;;;;;;;;5032633;28;20036;-68
2020/12/27 05:10:41;;;;;;;5.93;0.68;;;;;;;;;;5032412;28;20026;-69
2020/12/27 05:13:14;;;;;;;5.13;0.95;;;;;;;;;;5032614;28;20049;-69
2020/12/27 05:15:40;;;;;;;4.78;0.85;;;;;;;;;;5032790;28;20028;-69
2020/12/27 05:18:06;;;;;;;7.75;1.10;;;;;;;;;;5031303;28;20104;-68
2020/12/27 05:20:31;;;;;;;9.00;0.88;;;;;;;;;;5032611;28;20024;-69
2020/12/27 05:23:01;;;;;;;7.68;0.65;;;;;;;;;;5032612;28;20034;-69
2020/12/27 05:25:26;;;;;;;8.32;0.75;;;;;;;;;;5032032;28;20145;-68
2020/12/27 05:27:53;;;;;;;2.33;0.63;;;;;;;;;;5031789;28;20487;-69
2020/12/27 05:30:24;;;;;;;3.08;0.82;;;;;;;;;;5032708;28;20493;-69
2020/12/27 05:32:49;;;;;;;8.48;0.95;;;;;;;;;;5031480;28;20049;-69
2020/12/27 05:35:14;;;;;;;4.47;1.00;;;;;;;;;;5032500;28;20032;-69
2020/12/27 05:37:41;;;;;;;2.30;0.80;;;;;;;;;;5031956;28;20051;-68
2020/12/27 05:40:06;;;;;;;9.38;1.10;;;;;;;;;;5032170;28;20042;-69
2020/12/27 05:42:32;;;;;;;7.13;0.70;;;;;;;;;;5039602;28;20104;-70
2020/12/27 05:45:00;;;;;;;13.23;1.25;;;;;;;;;;5032281;28;20068;-69
2020/12/27 05:47:27;;;;;;;8.18;1.60;;;;;;;;;;5031654;28;20038;-68
2020/12/27 05:49:53;;;;;;;4.20;0.85;;;;;;;;;;5032427;28;20026;-69
2020/12/27 05:52:19;;;;;;;9.18;0.93;;;;;;;;;;5031233;28;20394;-69
2020/12/27 05:54:47;;;;;;;5.25;0.70;;;;;;;;;;5031900;28;20043;-69
2020/12/27 05:57:14;;;;;;;6.75;1.58;;;;;;;;;;5031637;28;20347;-77
2020/12/27 05:59:42;;;;;;;13.05;1.17;;;;;;;;;;5032047;28;20478;-69
2020/12/27 06:02:23;;;;;;;13.75;1.20;;;;;;;;;;5031968;28;20029;-69
2020/12/27 06:05:15;;;;;;;16.52;1.20;;;;;;;;;;5032354;28;20032;-68
2020/12/27 06:07:44;;;;;;;7.05;1.10;;;;;;;;;;5012984;28;20049;-73
2020/12/27 06:10:14;;;;;;;6.10;1.10;;;;;;;;;;5026918;28;20045;-69
2020/12/27 06:12:47;;;;;;;11.82;1.27;;;;;;;;;;5031435;28;20116;-70
2020/12/27 06:15:28;;;;;;;5.93;1.23;;;;;;;;;;5032059;28;20038;-69
2020/12/27 06:17:54;;;;;;;10.20;1.20;;;;;;;;;;5031776;28;20067;-69
2020/12/27 06:20:21;;;;;;;9.43;1.77;;;;;;;;;;5031791;28;20187;-69
2020/12/27 06:22:50;;;;;;;13.23;1.58;;;;;;;;;;5030949;28;20359;-69
2020/12/27 06:25:16;;;;;;;15.88;1.25;;;;;;;;;;5032003;28;20029;-69
2020/12/27 06:27:41;;;;;;;10.98;2.45;;;;;;;;;;5031591;28;20448;-71
2020/12/27 06:30:07;;;;;;;13.20;1.15;;;;;;;;;;5033991;28;20125;-69
2020/12/27 06:32:34;;;;;;;12.00;1.30;;;;;;;;;;5034937;28;20053;-70
2020/12/27 06:35:04;;;;;;;20.00;1.75;;;;;;;;;;5034700;28;20029;-69
2020/12/27 06:37:37;;;;;;;12.18;1.58;;;;;;;;;;5034311;28;20481;-70
2020/12/27 06:40:02;;;;;;;12.45;1.45;;;;;;;;;;5034643;28;20121;-68
2020/12/27 06:42:30;;;;;;;23.42;4.00;;;;;;;;;;5038837;28;20108;-69
2020/12/27 06:44:56;;;;;;;12.80;1.35;;;;;;;;;;5035059;28;20052;-69
2020/12/27 06:47:41;;;;;;;9.07;1.10;;;;;;;;;;5034478;28;20065;-69
2020/12/27 06:50:14;;;;;;;8.07;0.80;;;;;;;;;;5035028;28;20438;-69
2020/12/27 06:52:39;;;;;;;7.05;1.30;;;;;;;;;;5034872;28;20072;-69
2020/12/27 06:55:04;;;;;;;5.97;1.00;;;;;;;;;;5035340;28;20034;-70
2020/12/27 06:57:41;;;;;;;4.55;0.40;;;;;;;;;;5034533;28;20057;-71
2020/12/27 07:00:18;;;;;;;5.53;0.82;;;;;;;;;;5035267;28;20122;-69
2020/12/27 07:02:44;;;;;;;3.03;0.40;;;;;;;;;;5033687;28;20052;-71
2020/12/27 07:05:09;;;;;;;2.78;0.38;;;;;;;;;;5035164;28;20029;-69
2020/12/27 07:07:45;;;;;;;3.40;0.60;;;;;;;;;;5034320;28;20037;-70
2020/12/27 07:10:11;;;;;;;7.05;0.88;;;;;;;;;;5034016;28;20518;-69
2020/12/27 07:12:37;;;;;;;3.80;0.70;;;;;;;;;;5034257;28;20084;-68
2020/12/27 07:15:08;;;;;;;3.47;0.60;;;;;;;;;;5034472;28;20041;-69
2020/12/27 07:17:34;;;;;;;4.28;0.63;;;;;;;;;;5034251;28;20105;-72
2020/12/27 07:20:01;;;;;;;11.32;0.90;;;;;;;;;;5034844;28;20524;-69
2020/12/27 07:22:27;;;;;;;12.23;2.78;;;;;;;;;;5033867;28;20024;-69
2020/12/27 07:24:52;;;;;;;8.43;2.72;;;;;;;;;;5034344;28;20402;-68
2020/12/27 07:27:18;;;;;;;9.75;1.60;;;;;;;;;;5034269;28;20029;-69
2020/12/27 07:29:52;;;;;;;5.88;1.35;;;;;;;;;;5033897;28;20092;-69
2020/12/27 07:32:19;;;;;;;3.30;1.17;;;;;;;;;;5034056;28;20053;-69
2020/12/27 07:34:44;;;;;;;4.00;1.15;;;;;;;;;;5034272;28;20032;-69
2020/12/27 07:37:10;;;;;;;3.67;0.63;;;;;;;;;;5033607;28;20022;-68
2020/12/27 07:39:50;;;;;;;6.15;0.60;;;;;;;;;;5033937;28;20025;-69
2020/12/27 07:42:22;;;;;;;5.10;0.95;;;;;;;;;;5033386;28;20037;-69
2020/12/27 07:44:47;;;;;;;5.15;0.60;;;;;;;;;;5034347;28;20033;-69
2020/12/27 07:47:12;;;;;;;2.97;0.80;;;;;;;;;;5034036;28;20083;-70
2020/12/27 07:49:38;;;;;;;5.50;0.70;;;;;;;;;;5033691;28;20020;-70
2020/12/27 07:52:03;;;;;;;6.93;1.00;;;;;;;;;;5034020;28;20041;-69
2020/12/27 07:54:28;;;;;;;7.47;1.27;;;;;;;;;;5033954;28;20033;-69
2020/12/27 07:56:53;;;;;;;2.50;0.50;;;;;;;;;;5033860;28;20109;-68
2020/12/27 07:59:19;;;;;;;6.35;0.65;;;;;;;;;;5033350;28;20029;-69
2020/12/27 08:01:44;;;;;;;7.95;0.90;;;;;;;;;;5033782;28;20065;-69
2020/12/27 08:04:09;;;;;;;5.20;0.70;;;;;;;;;;5033268;28;20025;-70
2020/12/27 08:06:40;;;;;;;12.65;1.10;;;;;;;;;;5033011;28;20034;-68
2020/12/27 08:09:05;;;;;;;3.65;0.65;;;;;;;;;;5032186;28;20037;-68
2020/12/27 08:11:31;;;;;;;9.93;0.90;;;;;;;;;;5033419;28;20497;-68
2020/12/27 08:13:58;;;;;;;9.70;0.93;;;;;;;;;;5033314;28;20043;-69
2020/12/27 08:16:23;;;;;;;11.68;2.25;;;;;;;;;;5033242;28;20478;-69
2020/12/27 08:19:00;;;;;;;10.57;0.80;;;;;;;;;;5032730;28;20117;-70
2020/12/27 08:21:25;;;;;;;9.63;1.10;;;;;;;;;;5033391;28;20418;-68
2020/12/27 08:23:57;;;;;;;13.15;1.17;;;;;;;;;;5032219;28;20033;-69
2020/12/27 08:26:23;;;;;;;6.15;1.10;;;;;;;;;;5032894;28;20036;-68
2020/12/27 08:28:48;;;;;;;8.15;1.23;;;;;;;;;;5033063;28;20389;-68
2020/12/27 08:31:23;;;;;;;10.23;1.42;;;;;;;;;;5032839;28;20037;-68
2020/12/27 08:33:48;;;;;;;6.45;1.15;;;;;;;;;;5032847;28;20056;-69
2020/12/27 08:36:19;;;;;;;9.98;1.70;;;;;;;;;;5033108;28;20037;-68
2020/12/27 08:38:49;;;;;;;13.80;1.20;;;;;;;;;;5031388;28;20021;-69
2020/12/27 08:41:27;;;;;;;9.75;2.03;;;;;;;;;;5035124;28;20037;-68
2020/12/27 08:44:11;;;;;;;6.68;1.27;;;;;;;;;;5032326;28;20029;-68
2020/12/27 08:46:41;;;;;;;14.70;2.42;;;;;;;;;;5026939;28;20036;-72
2020/12/27 08:49:20;;;;;;;9.70;1.45;;;;;;;;;;5032486;28;20058;-68
2020/12/27 08:51:48;;;;;;;12.50;1.00;;;;;;;;;;5030598;28;20108;-71
2020/12/27 08:54:15;;;;;;;6.47;1.50;;;;;;;;;;5034613;28;20045;-69
2020/12/27 08:56:41;;;;;;;12.15;1.33;;;;;;;;;;5045911;28;20901;-69
2020/12/27 08:59:06;;;;;;;9.25;1.98;;;;;;;;;;5043280;28;20080;-68
2020/12/27 09:01:31;;;;;;;5.60;0.88;;;;;;;;;;5032108;28;20040;-69
2020/12/27 09:03:57;;;;;;;4.95;0.90;;;;;;;;;;5032832;28;20374;-69
2020/12/27 09:06:22;;;;;;;9.60;1.40;;;;;;;;;;5041376;28;20028;-69
2020/12/27 09:08:56;;;;;;;12.82;1.17;;;;;;;;;;5041332;28;20029;-69
2020/12/27 09:11:21;;;;;;;6.75;1.75;;;;;;;;;;5042417;28;20025;-69
2020/12/27 09:13:46;;;;;;;11.63;2.63;;;;;;;;;;5038755;28;20466;-69
2020/12/27 09:16:12;;;;;;;10.30;2.60;;;;;;;;;;5032753;28;20398;-69
2020/12/27 09:18:37;;;;;;;9.05;2.10;;;;;;;;;;5032689;28;20026;-73
2020/12/27 09:21:04;;;;;;;6.43;2.10;;;;;;;;;;5032188;28;20036;-71
2020/12/27 09:23:29;;;;;;;12.18;1.60;;;;;;;;;;5028857;28;20029;-69
2020/12/27 09:26:13;;;;;;;6.72;2.17;;;;;;;;;;5039210;28;20480;-69
2020/12/27 09:28:39;;;;;;;5.47;1.65;;;;;;;;;;5029985;28;20026;-70
2020/12/27 09:31:08;;;;;;;7.10;1.70;;;;;;;;;;5043671;28;20500;-69
2020/12/27 09:33:35;;;;;;;8.32;1.30;;;;;;;;;;5038904;28;20378;-71
2020/12/27 09:36:02;;;;;;;7.68;1.30;;;;;;;;;;5043186;28;20115;-69
2020/12/27 09:38:28;;;;;;;8.45;1.55;;;;;;;;;;5041843;28;20060;-69
2020/12/27 09:41:12;;;;;;;5.28;1.50;;;;;;;;;;5041723;28;20348;-70
2020/12/27 09:43:56;;;;;;;9.57;1.23;;;;;;;;;;5038884;28;20033;-69
2020/12/27 09:46:40;;;;;;;11.70;3.20;;;;;;;;;;5041935;28;20020;-69
2020/12/27 09:49:15;;;;;;;6.72;2.03;;;;;;;;;;5039729;28;20025;-69
2020/12/27 09:51:41;;;;;;;8.27;2.25;;;;;;;;;;5035943;28;20039;-69
2020/12/27 09:54:06;;;;;;;42.05;11.75;;;;;;;;;;5029041;28;20389;-77
2020/12/27 09:56:39;;;;;;;67.68;20.38;;;;;;;;;;5023951;28;20037;-70
2020/12/27 09:59:04;;;;;;;53.53;16.75;;;;;;;;;;5032070;28;20024;-73
2020/12/27 10:01:30;;;;;;;45.70;9.90;;;;;;;;;;5025877;28;20033;-69
2020/12/27 10:03:55;;;;;;;143.10;40.53;;;;;;;;;;5026979;28;20035;-71
2020/12/27 10:06:20;;;;;;;111.20;31.27;;;;;;;;;;5030577;28;20117;-72
2020/12/27 10:08:45;;;;;;;138.80;44.97;;;;;;;;;;5030846;28;20030;-71
2020/12/27 10:11:11;;;;;;;117.05;35.08;;;;;;;;;;5029908;28;20474;-70
2020/12/27 10:13:36;;;;;;;42.80;12.45;;;;;;;;;;5030484;28;20022;-70
2020/12/27 10:16:01;;;;;;;20.35;3.95;;;;;;;;;;5029738;28;20041;-74
2020/12/27 10:18:26;;;;;;;12.15;2.08;;;;;;;;;;5028891;28;20044;-70
2020/12/27 10:20:52;;;;;;;16.35;2.72;;;;;;;;;;5030894;28;20526;-69
2020/12/27 10:23:17;;;;;;;12.93;2.28;;;;;;;;;;5029739;28;20033;-71
2020/12/27 10:25:42;;;;;;;9.38;1.77;;;;;;;;;;5030001;28;20040;-72
2020/12/27 10:28:07;;;;;;;12.63;1.70;;;;;;;;;;5043810;28;20025;-70
2020/12/27 10:30:33;;;;;;;8.43;1.95;;;;;;;;;;5035633;28;20047;-69
2020/12/27 10:32:58;;;;;;;15.68;2.72;;;;;;;;;;5035405;28;20155;-72
2020/12/27 10:35:23;;;;;;;14.40;3.45;;;;;;;;;;5050467;28;20016;-69
2020/12/27 10:37:49;;;;;;;9.00;2.60;;;;;;;;;;5049770;28;20064;-69
2020/12/27 10:40:14;;;;;;;15.18;2.15;;;;;;;;;;5050218;28;20091;-71
2020/12/27 10:42:39;;;;;;;11.25;1.88;;;;;;;;;;5017544;28;20681;-72
2020/12/27 10:45:04;;;;;;;17.63;2.58;;;;;;;;;;5029602;28;20057;-69
2020/12/27 10:47:30;;;;;;;12.68;2.38;;;;;;;;;;5027696;28;20037;-69
2020/12/27 10:49:55;;;;;;;19.88;1.92;;;;;;;;;;5014907;28;20025;-72
2020/12/27 10:52:20;;;;;;;13.52;3.05;;;;;;;;;;5027190;28;20053;-71
2020/12/27 10:54:45;;;;;;;22.15;2.85;;;;;;;;;;5027045;28;20039;-70
2020/12/27 10:57:11;;;;;;;14.20;1.73;;;;;;;;;;5027564;28;20370;-74
2020/12/27 10:59:36;;;;;;;14.63;2.03;;;;;;;;;;5030110;28;20117;-68
2020/12/27 11:02:01;;;;;;;12.68;2.40;;;;;;;;;;5031488;28;20095;-69
2020/12/27 11:04:26;;;;;;;15.35;1.60;;;;;;;;;;5031434;28;20017;-70
2020/12/27 11:06:52;;;;;;;23.10;3.55;;;;;;;;;;5034042;28;20048;-71
2020/12/27 11:09:17;;;;;;;18.60;2.42;;;;;;;;;;5032996;28;20124;-68
2020/12/27 11:11:42;;;;;;;17.58;3.28;;;;;;;;;;5034239;28;20036;-69
2020/12/27 11:14:08;;;;;;;18.42;2.83;;;;;;;;;;5034407;28;20489;-69
2020/12/27 11:16:34;;;;;;;13.00;1.90;;;;;;;;;;5020594;28;20474;-70
2020/12/27 11:19:00;;;;;;;11.13;1.83;;;;;;;;;;5030662;28;20025;-68
2020/12/27 11:21:25;;;;;;;12.65;1.90;;;;;;;;;;5030073;28;20492;-68
2020/12/27 11:23:50;;;;;;;8.30;2.08;;;;;;;;;;5034342;28;20106;-71
2020/12/27 11:26:19;;;;;;;20.55;2.25;;;;;;;;;;5031231;28;20082;-69
2020/12/27 11:28:45;;;;;;;13.13;2.55;;;;;;;;;;5042693;28;20039;-70
2020/12/27 11:31:10;;;;;;;17.30;3.22;;;;;;;;;;5035420;28;20631;-68
2020/12/27 11:33:35;;;;;;;18.27;2.53;;;;;;;;;;5039187;28;20056;-70
2020/12/27 11:36:00;;;;;;;12.68;2.15;;;;;;;;;;5044671;28;20406;-70
2020/12/27 11:38:26;;;;;;;16.13;2.05;;;;;;;;;;5040390;28;20040;-70
2020/12/27 11:40:51;;;;;;;15.40;2.08;;;;;;;;;;5040581;28;20151;-70
2020/12/27 11:43:16;;;;;;;8.63;1.80;;;;;;;;;;5050691;28;20036;-70
2020/12/27 11:45:42;;;;;;;12.93;2.08;;;;;;;;;;5033556;28;20401;-73
2020/12/27 11:48:07;;;;;;;14.98;2.00;;;;;;;;;;5043788;28;20447;-69
2020/12/27 11:50:32;;;;;;;14.95;2.97;;;;;;;;;;5039852;28;20033;-70
2020/12/27 11:52:57;;;;;;;14.43;2.33;;;;;;;;;;5036368;28;20045;-70
2020/12/27 11:55:23;;;;;;;16.25;2.45;;;;;;;;;;5046978;28;20025;-68
2020/12/27 11:57:48;;;;;;;17.67;2.92;;;;;;;;;;5034357;28;20037;-68
2020/12/27 12:00:13;;;;;;;15.50;2.40;;;;;;;;;;5042226;28;20037;-71
2020/12/27 12:02:39;;;;;;;10.95;1.77;;;;;;;;;;5041233;28;20017;-69
2020/12/27 12:05:04;;;;;;;19.30;2.08;;;;;;;;;;5035355;28;20390;-69
2020/12/27 12:07:29;;;;;;;19.85;3.42;;;;;;;;;;5032362;28;20037;-71
2020/12/27 12:09:55;;;;;;;9.45;1.95;;;;;;;;;;5032554;28;20093;-68
2020/12/27 12:12:20;;;;;;;16.70;2.88;;;;;;;;;;5033450;28;20041;-69
2020/12/27 12:14:45;;;;;;;13.13;2.05;;;;;;;;;;5033312;28;20033;-68
2020/12/27 12:17:10;;;;;;;17.60;4.38;;;;;;;;;;5034129;28;20041;-68
2020/12/27 12:19:36;;;;;;;18.30;2.38;;;;;;;;;;5033573;28;20468;-68
2020/12/27 12:22:01;;;;;;;12.88;2.40;;;;;;;;;;5033724;28;20033;-68
2020/12/27 12:24:26;;;;;;;13.18;2.97;;;;;;;;;;5038739;28;20092;-69
2020/12/27 12:26:51;;;;;;;13.90;3.22;;;;;;;;;;5052629;28;20033;-68
2020/12/27 12:29:17;;;;;;;10.95;2.25;;;;;;;;;;5053400;28;20484;-68
2020/12/27 12:31:42;;;;;;;22.20;3.58;;;;;;;;;;5052922;28;20033;-68
2020/12/27 12:34:08;;;;;;;12.48;1.95;;;;;;;;;;5052860;28;20094;-68
2020/12/27 12:36:34;;;;;;;15.30;1.98;;;;;;;;;;5040089;28;20484;-68
2020/12/27 12:38:59;;;;;;;14.02;2.22;;;;;;;;;;5040831;28;20416;-68
2020/12/27 12:41:25;;;;;;;10.60;2.20;;;;;;;;;;5043076;28;20025;-68
2020/12/27 12:43:50;;;;;;;9.77;1.88;;;;;;;;;;5042020;28;20363;-68
2020/12/27 12:46:16;;;;;;;13.68;2.15;;;;;;;;;;5028162;28;20036;-70
2020/12/27 12:48:41;;;;;;;15.07;3.92;;;;;;;;;;5030222;28;20133;-69
2020/12/27 12:51:06;;;;;;;11.95;2.22;;;;;;;;;;5031633;28;20036;-69
2020/12/27 12:53:32;;;;;;;20.48;3.38;;;;;;;;;;5039055;28;20032;-70
2020/12/27 12:55:57;;;;;;;22.80;2.50;;;;;;;;;;5039398;28;20039;-71
2020/12/27 12:58:22;;;;;;;13.13;2.00;;;;;;;;;;5034544;28;20041;-69
2020/12/27 13:00:48;;;;;;;10.93;1.80;;;;;;;;;;5045450;28;20033;-69
2020/12/27 13:03:13;;;;;;;15.43;2.08;;;;;;;;;;5033591;28;20029;-71
2020/12/27 13:05:38;;;;;;;10.80;2.05;;;;;;;;;;5032635;28;20033;-68
2020/12/27 13:08:05;;;;;;;13.05;1.80;;;;;;;;;;5033249;28;20553;-69
2020/12/27 13:10:31;;;;;;;10.93;2.10;;;;;;;;;;5030409;28;20057;-69
2020/12/27 13:12:56;;;;;;;22.27;2.03;;;;;;;;;;5045417;28;20041;-69
2020/12/27 13:15:22;;;;;;;10.40;2.05;;;;;;;;;;5039834;28;20091;-69
2020/12/27 13:17:47;;;;;;;11.93;2.05;;;;;;;;;;5031625;28;20041;-71
2020/12/27 13:20:13;;;;;;;15.13;2.28;;;;;;;;;;5041418;28;20040;-68
2020/12/27 13:22:39;;;;;;;10.55;2.83;;;;;;;;;;5032664;28;20026;-69
2020/12/27 13:25:04;;;;;;;13.07;1.70;;;;;;;;;;5041387;28;20021;-71
2020/12/27 13:27:31;;;;;;;12.93;1.90;;;;;;;;;;5040291;28;20443;-69
2020/12/27 13:29:56;;;;;;;15.55;3.13;;;;;;;;;;5030199;28;20085;-70
2020/12/27 13:32:22;;;;;;;11.73;2.20;;;;;;;;;;5032112;28;20081;-69
2020/12/27 13:34:47;;;;;;;10.38;2.42;;;;;;;;;;5037474;28;20918;-70
2020/12/27 13:37:12;;;;;;;14.20;2.05;;;;;;;;;;5041807;28;20445;-69
2020/12/27 13:39:37;;;;;;;10.05;1.63;;;;;;;;;;5035048;28;20083;-69
2020/12/27 13:42:03;;;;;;;9.82;2.67;;;;;;;;;;5040628;28;20439;-69
2020/12/27 13:44:28;;;;;;;11.05;1.92;;;;;;;;;;5043821;28;20321;-70
2020/12/27 13:46:53;;;;;;;10.50;2.17;;;;;;;;;;5033926;28;20558;-74
2020/12/27 13:49:19;;;;;;;13.52;4.07;;;;;;;;;;5037169;28;20043;-69
2020/12/27 13:51:45;;;;;;;11.00;2.30;;;;;;;;;;5039023;28;20024;-68
2020/12/27 13:54:10;;;;;;;11.82;3.50;;;;;;;;;;5037655;28;20105;-70
2020/12/27 13:56:35;;;;;;;11.57;1.77;;;;;;;;;;5032847;28;20132;-69
2020/12/27 13:59:01;;;;;;;14.95;2.00;;;;;;;;;;5032887;28;20386;-69
2020/12/27 14:01:26;;;;;;;9.65;3.25;;;;;;;;;;5032644;28;20040;-69
2020/12/27 14:03:52;;;;;;;12.95;1.85;;;;;;;;;;5015043;28;20037;-73
2020/12/27 14:06:26;;;;;;;8.88;2.38;;;;;;;;;;5032484;28;20026;-68
2020/12/27 14:08:52;;;;;;;9.73;2.23;;;;;;;;;;5032009;28;20520;-71
2020/12/27 14:11:18;;;;;;;12.27;2.15;;;;;;;;;;5026713;28;20285;-69
2020/12/27 14:13:43;;;;;;;11.77;3.13;;;;;;;;;;5027973;28;20028;-71
2020/12/27 14:16:11;;;;;;;9.70;3.00;;;;;;;;;;5029634;28;20628;-71
2020/12/27 14:18:36;;;;;;;10.85;3.80;;;;;;;;;;5034780;28;20396;-74
2020/12/27 14:21:02;;;;;;;9.27;3.65;;;;;;;;;;5030392;28;20026;-69
2020/12/27 14:23:27;;;;;;;11.13;3.28;;;;;;;;;;5034598;28;20033;-72
2020/12/27 14:25:52;;;;;;;10.68;1.63;;;;;;;;;;5036290;28;20465;-70
2020/12/27 14:28:18;;;;;;;19.73;4.75;;;;;;;;;;5034022;28;20025;-70
2020/12/27 14:30:43;;;;;;;8.73;2.10;;;;;;;;;;5032782;28;20080;-70
2020/12/27 14:33:08;;;;;;;16.15;1.88;;;;;;;;;;5033462;28;20115;-71